Time;durP1;ratioP1;P1;durP2;ratioP2;P2;SDS_P1;SDS_P2;PMS_P1;PMS_P2;Temp;Humidity;BMP_temperature;BMP_pressure;BME280_temperature;BME280_humidity;BME280_pressure;Samples;Min_cycle;Max_cycle;Signal;HPM_P1;HPM_P2
2021/11/10 00:00:26;;;;;;;7.08;2.85;;;;;;;1.38;55.08;102573.77;1764971;78;21567;-60
2021/11/10 00:02:53;;;;;;;8.23;2.72;;;;;;;1.40;54.86;102575.91;1763081;78;21633;-60
2021/11/10 00:05:20;;;;;;;7.75;3.27;;;;;;;1.39;54.82;102573.31;1765541;78;21805;-61
2021/11/10 00:07:47;;;;;;;6.17;2.15;;;;;;;1.33;54.84;102578.53;1750061;80;21035;-62
2021/11/10 00:10:14;;;;;;;7.35;3.10;;;;;;;1.25;54.72;102574.70;1768889;78;21102;-60
2021/11/10 00:12:42;;;;;;;7.53;2.83;;;;;;;1.14;54.90;102585.13;1766256;78;21023;-60
2021/11/10 00:15:09;;;;;;;6.80;3.17;;;;;;;1.06;55.07;102585.59;1766119;78;21026;-59
2021/11/10 00:17:36;;;;;;;6.37;2.83;;;;;;;1.00;55.22;102590.83;1766483;80;21059;-60
2021/11/10 00:20:06;;;;;;;9.05;3.52;;;;;;;0.95;55.37;102592.58;1767188;78;20995;-60
2021/11/10 00:22:32;;;;;;;8.05;2.95;;;;;;;0.92;55.44;102586.55;1768376;78;21148;-60
2021/11/10 00:24:58;;;;;;;7.55;3.67;;;;;;;0.91;55.41;102591.30;1771593;78;21066;-60
2021/11/10 00:27:24;;;;;;;7.72;3.47;;;;;;;0.91;55.44;102586.55;1751919;80;21067;-60
2021/11/10 00:29:51;;;;;;;8.30;3.60;;;;;;;0.91;55.43;102592.59;1748326;78;21034;-59
2021/11/10 00:32:18;;;;;;;8.45;3.77;;;;;;;0.88;55.48;102591.30;1753311;79;21086;-61
2021/11/10 00:34:44;;;;;;;8.98;4.20;;;;;;;0.90;55.55;102596.04;1774045;78;21139;-60
2021/11/10 00:37:12;;;;;;;12.75;4.87;;;;;;;0.88;55.63;102602.11;1780926;80;21007;-60
2021/11/10 00:39:39;;;;;;;11.53;4.17;;;;;;;0.90;55.62;102601.22;1778103;78;20999;-60
2021/11/10 00:42:07;;;;;;;10.38;4.00;;;;;;;0.88;55.63;102592.59;1771843;78;21014;-60
2021/11/10 00:44:34;;;;;;;9.90;3.87;;;;;;;0.89;55.63;102593.45;1770886;78;21111;-60
2021/11/10 00:47:02;;;;;;;8.10;4.35;;;;;;;0.85;55.82;102604.27;1749866;78;21101;-60
2021/11/10 00:49:29;;;;;;;13.58;5.45;;;;;;;0.83;55.70;102610.34;1792832;77;21573;-59
2021/11/10 00:51:56;;;;;;;8.55;4.40;;;;;;;0.73;55.89;102612.95;1751150;78;21074;-60
2021/11/10 00:54:25;;;;;;;10.82;5.47;;;;;;;0.74;55.91;102609.95;1766322;78;21082;-60
2021/11/10 00:56:55;;;;;;;10.23;5.28;;;;;;;0.69;56.00;102603.89;1751770;80;21125;-60
2021/11/10 00:59:21;;;;;;;9.43;5.12;;;;;;;0.66;56.04;102615.58;1756352;80;21057;-61
2021/11/10 01:01:47;;;;;;;10.43;5.55;;;;;;;0.60;56.20;102615.59;1765355;80;21027;-60
2021/11/10 01:04:14;;;;;;;14.33;6.25;;;;;;;0.58;56.29;102610.85;1772535;78;21062;-60
2021/11/10 01:06:40;;;;;;;12.45;6.40;;;;;;;0.52;56.52;102613.00;1749935;78;21114;-60
2021/11/10 01:09:10;;;;;;;13.43;6.30;;;;;;;0.45;56.92;102616.04;1763457;78;22229;-60
2021/11/10 01:11:36;;;;;;;12.50;6.20;;;;;;;0.42;57.20;102621.25;1765615;78;21217;-60
2021/11/10 01:14:04;;;;;;;15.70;7.00;;;;;;;0.40;57.40;102615.19;1756945;79;21090;-60
2021/11/10 01:16:31;;;;;;;14.58;6.83;;;;;;;0.39;57.56;102612.19;1754816;79;21141;-60
2021/11/10 01:18:57;;;;;;;14.28;6.80;;;;;;;0.36;57.71;102603.13;1766188;78;21470;-59
2021/11/10 01:21:26;;;;;;;11.95;6.15;;;;;;;0.41;57.93;102605.72;1750190;80;21058;-60
2021/11/10 01:23:53;;;;;;;13.68;6.28;;;;;;;0.44;57.98;102600.09;1747846;79;21513;-59
2021/11/10 01:26:20;;;;;;;12.03;6.78;;;;;;;0.51;58.13;102612.16;1746631;79;21098;-60
2021/11/10 01:28:47;;;;;;;12.07;7.00;;;;;;;0.54;58.14;102622.52;1747509;78;21011;-60
2021/11/10 01:31:14;;;;;;;15.25;7.53;;;;;;;0.58;58.11;102628.55;1766706;78;21118;-60
2021/11/10 01:33:40;;;;;;;13.38;7.25;;;;;;;0.58;58.03;102632.88;1765236;78;21496;-60
2021/11/10 01:36:10;;;;;;;17.77;7.33;;;;;;;0.60;57.81;102641.50;1748140;79;21114;-60
2021/11/10 01:38:37;;;;;;;18.70;8.83;;;;;;;0.53;57.75;102653.60;1761322;78;21568;-60
2021/11/10 01:41:04;;;;;;;14.38;7.62;;;;;;;0.48;57.59;102665.70;1762002;78;21043;-60
2021/11/10 01:43:33;;;;;;;13.62;8.08;;;;;;;0.38;57.67;102660.95;1743116;79;21029;-60
2021/11/10 01:46:00;;;;;;;15.85;8.28;;;;;;;0.32;57.73;102660.55;1761210;78;21074;-60
2021/11/10 01:50:17;;;;;;;15.88;8.30;;;;;;;0.26;58.15;102647.59;1799925;76;23093;-60
2021/11/10 01:52:45;;;;;;;15.43;7.92;;;;;;;0.08;58.45;102654.92;1771114;79;21055;-60
2021/11/10 01:55:13;;;;;;;15.68;8.03;;;;;;;0.01;58.52;102647.17;1772602;79;21754;-60
2021/11/10 01:57:41;;;;;;;14.28;7.50;;;;;;;-0.10;58.62;102645.44;1770151;79;21140;-60
2021/11/10 02:00:18;;;;;;;15.95;7.30;;;;;;;-0.14;58.66;102633.34;1769587;78;21038;-60
2021/11/10 02:02:48;;;;;;;13.80;7.65;;;;;;;-0.13;58.78;102645.88;1756201;80;21081;-60
2021/11/10 02:05:17;;;;;;;16.50;8.13;;;;;;;-0.13;58.90;102645.88;1775316;79;21039;-60
2021/11/10 02:07:45;;;;;;;15.10;7.67;;;;;;;-0.16;59.07;102644.57;1774800;79;21326;-60
2021/11/10 02:10:13;;;;;;;13.83;7.87;;;;;;;-0.22;59.19;102651.47;1775081;79;21125;-62
2021/11/10 02:12:41;;;;;;;15.53;7.12;;;;;;;-0.28;59.17;102638.52;1777381;79;21082;-59
2021/11/10 02:15:12;;;;;;;16.45;8.15;;;;;;;-0.32;59.41;102632.91;1737918;80;21045;-60
2021/11/10 02:17:39;;;;;;;12.23;6.80;;;;;;;-0.33;59.46;102633.77;1722504;82;21134;-59
2021/11/10 02:20:08;;;;;;;16.35;7.90;;;;;;;-0.32;59.52;102641.97;1720456;81;21191;-59
2021/11/10 02:22:37;;;;;;;13.80;6.80;;;;;;;-0.29;59.56;102642.39;1743182;81;21077;-59
2021/11/10 02:25:08;;;;;;;14.13;7.35;;;;;;;-0.28;59.68;102651.45;1731940;81;21106;-59
2021/11/10 02:27:36;;;;;;;15.38;7.78;;;;;;;-0.25;59.73;102659.66;1726919;81;21059;-59
2021/11/10 02:30:13;;;;;;;13.32;7.20;;;;;;;-0.17;59.57;102660.95;1729046;79;21558;-59
2021/11/10 02:32:40;;;;;;;16.80;8.08;;;;;;;-0.14;59.43;102659.66;1733162;81;22068;-58
2021/11/10 02:35:07;;;;;;;15.60;7.03;;;;;;;-0.10;59.14;102666.55;1729278;81;21161;-58
2021/11/10 02:37:34;;;;;;;17.17;7.20;;;;;;;-0.13;59.06;102662.70;1727695;81;21549;-58
2021/11/10 02:40:02;;;;;;;13.15;7.03;;;;;;;-0.14;59.11;102668.72;1728723;81;21118;-58
2021/11/10 02:42:29;;;;;;;16.25;8.60;;;;;;;-0.12;59.15;102671.73;1731667;81;21066;-58
2021/11/10 02:44:55;;;;;;;16.60;8.03;;;;;;;-0.08;59.00;102672.62;1695523;81;21051;-58
2021/11/10 02:47:22;;;;;;;13.88;7.33;;;;;;;-0.07;58.96;102669.15;1729728;81;21074;-58
2021/11/10 02:49:48;;;;;;;13.62;8.25;;;;;;;-0.06;59.09;102669.16;1734911;80;21663;-59
2021/11/10 02:52:19;;;;;;;11.75;7.22;;;;;;;-0.01;59.11;102675.20;1747615;80;21170;-58
2021/11/10 02:54:49;;;;;;;17.25;8.70;;;;;;;-0.03;59.21;102669.16;1742210;81;21088;-58
2021/11/10 02:57:16;;;;;;;15.10;7.60;;;;;;;0.04;59.21;102682.12;1697926;80;21015;-58
2021/11/10 02:59:44;;;;;;;15.08;7.50;;;;;;;0.08;59.09;102682.55;1754968;80;21695;-58
2021/11/10 03:02:11;;;;;;;13.62;8.23;;;;;;;0.10;59.11;102667.86;1784671;79;21033;-59
2021/11/10 03:04:44;;;;;;;13.13;7.12;;;;;;;0.12;59.06;102675.23;1756259;80;21063;-58
2021/11/10 03:07:13;;;;;;;13.60;8.23;;;;;;;0.13;59.12;102667.43;1749234;80;21459;-59
2021/11/10 03:09:40;;;;;;;14.00;8.00;;;;;;;0.16;59.19;102671.31;1777263;79;21573;-60
2021/11/10 03:12:11;;;;;;;15.32;7.60;;;;;;;0.17;59.27;102678.67;1772885;79;21050;-59
2021/11/10 03:14:39;;;;;;;17.10;7.55;;;;;;;0.21;59.03;102689.45;1755986;79;21846;-59
2021/11/10 03:17:09;;;;;;;13.68;7.17;;;;;;;0.20;58.99;102685.13;1778293;78;20995;-59
2021/11/10 03:19:37;;;;;;;14.07;7.50;;;;;;;0.21;58.67;102686.01;1774027;78;21101;-58
2021/11/10 03:22:07;;;;;;;13.25;7.50;;;;;;;0.19;58.68;102689.89;1771587;78;21596;-59
2021/11/10 03:24:35;;;;;;;15.10;7.65;;;;;;;0.17;58.59;102681.27;1746629;78;21660;-59
2021/11/10 03:27:03;;;;;;;14.95;7.65;;;;;;;0.12;58.61;102682.99;1767855;78;21027;-60
2021/11/10 03:29:29;;;;;;;13.55;6.75;;;;;;;0.14;58.62;102690.33;1770100;78;21086;-59
2021/11/10 03:31:56;;;;;;;13.93;7.33;;;;;;;0.17;58.58;102694.22;1768252;78;21093;-59
2021/11/10 03:34:23;;;;;;;14.53;7.58;;;;;;;0.15;58.55;102701.98;1749128;78;21035;-59
2021/11/10 03:36:49;;;;;;;15.10;7.22;;;;;;;0.19;58.55;102704.13;1748542;78;21082;-59
2021/11/10 03:39:16;;;;;;;12.63;6.92;;;;;;;0.23;58.54;102701.11;1770164;78;21156;-59
2021/11/10 03:41:43;;;;;;;19.42;8.45;;;;;;;0.27;58.51;102709.30;1774429;78;21050;-59
2021/11/10 03:44:11;;;;;;;13.85;8.05;;;;;;;0.30;58.54;102702.83;1773580;78;21557;-59
2021/11/10 03:46:42;;;;;;;17.15;6.85;;;;;;;0.33;58.48;102697.66;1766876;78;21949;-59
2021/11/10 03:49:09;;;;;;;12.95;7.15;;;;;;;0.29;58.54;102690.32;1752777;80;21515;-59
2021/11/10 03:51:36;;;;;;;11.83;6.90;;;;;;;0.29;58.39;102699.38;1785690;78;21537;-59
2021/11/10 03:54:03;;;;;;;15.43;7.22;;;;;;;0.24;58.34;102695.93;1763415;79;21122;-59
2021/11/10 03:56:32;;;;;;;15.48;6.80;;;;;;;0.22;58.32;102689.01;1777536;78;21086;-59
2021/11/10 03:58:58;;;;;;;14.05;7.65;;;;;;;0.17;58.40;102686.00;1775447;78;21242;-59
2021/11/10 04:01:25;;;;;;;13.40;7.42;;;;;;;0.14;58.51;102688.59;1776250;78;21514;-59
2021/11/10 04:03:52;;;;;;;15.38;7.87;;;;;;;0.11;58.72;102693.76;1777977;78;21051;-59
2021/11/10 04:06:19;;;;;;;16.35;7.53;;;;;;;0.10;58.99;102691.16;1777967;78;21085;-59
2021/11/10 04:08:46;;;;;;;14.28;7.45;;;;;;;0.14;59.05;102689.03;1782179;78;21077;-60
2021/11/10 04:11:13;;;;;;;15.95;8.23;;;;;;;0.14;59.15;102691.17;1775967;78;21136;-61
2021/11/10 04:13:42;;;;;;;11.25;6.78;;;;;;;0.20;59.00;102692.89;1777229;78;21113;-62
2021/11/10 04:16:08;;;;;;;15.63;8.28;;;;;;;0.21;58.98;102701.55;1771452;78;21394;-61
2021/11/10 04:18:35;;;;;;;16.15;8.55;;;;;;;0.26;58.99;102701.11;1738232;80;21046;-60
2021/11/10 04:21:14;;;;;;;14.55;7.20;;;;;;;0.29;58.99;102706.30;1718333;82;21138;-60
2021/11/10 04:23:42;;;;;;;13.50;7.37;;;;;;;0.31;59.00;102709.75;1731400;81;21150;-60
2021/11/10 04:26:11;;;;;;;16.48;7.53;;;;;;;0.35;58.94;102712.75;1734533;81;21078;-59
2021/11/10 04:28:38;;;;;;;14.13;7.70;;;;;;;0.35;58.85;102713.64;1732037;81;21047;-59
2021/11/10 04:31:04;;;;;;;18.80;7.97;;;;;;;0.38;58.67;102706.28;1699571;81;21580;-60
2021/11/10 04:33:32;;;;;;;12.78;7.72;;;;;;;0.40;58.69;102714.05;1699638;82;21106;-60
2021/11/10 04:35:58;;;;;;;14.33;7.75;;;;;;;0.38;58.57;102714.05;1730563;81;21153;-61
2021/11/10 04:38:25;;;;;;;15.90;8.83;;;;;;;0.38;58.43;102714.05;1708419;81;21513;-61
2021/11/10 04:40:54;;;;;;;18.12;11.55;;;;;;;0.39;58.41;102704.55;1703202;81;21694;-60
2021/11/10 04:43:20;;;;;;;29.82;18.55;;;;;;;0.35;58.44;102710.16;1733198;81;21070;-61
2021/11/10 04:45:54;;;;;;;29.50;17.65;;;;;;;0.35;58.36;102707.16;1728297;81;21074;-60
2021/11/10 04:48:18;;;;;;;28.73;15.88;;;;;;;0.30;58.23;102701.13;1732352;81;21143;-61
2021/11/10 04:50:47;;;;;;;24.92;13.98;;;;;;;0.26;58.14;102706.30;1738570;80;21116;-61
2021/11/10 04:53:14;;;;;;;21.48;11.78;;;;;;;0.16;58.22;102706.27;1741360;80;21086;-60
2021/11/10 04:55:43;;;;;;;18.67;10.08;;;;;;;0.11;58.54;102694.20;1745389;80;21080;-59
2021/11/10 04:58:09;;;;;;;21.10;9.38;;;;;;;0.09;58.71;102698.52;1744175;80;21100;-61
2021/11/10 05:00:37;;;;;;;17.02;8.53;;;;;;;0.11;58.74;102692.47;1721555;80;21229;-61
2021/11/10 05:03:03;;;;;;;14.38;7.03;;;;;;;0.09;58.74;102696.78;1699847;82;21721;-61
2021/11/10 05:05:32;;;;;;;16.67;8.43;;;;;;;0.08;58.74;102695.05;1723039;81;21119;-61
2021/11/10 05:07:58;;;;;;;14.25;7.95;;;;;;;0.05;58.78;102704.13;1724270;81;21079;-61
2021/11/10 05:10:25;;;;;;;13.40;7.97;;;;;;;0.03;58.90;102698.50;1719066;81;21126;-60
2021/11/10 05:12:55;;;;;;;17.77;7.55;;;;;;;0.02;58.98;102696.36;1720781;81;21154;-61
2021/11/10 05:15:22;;;;;;;15.45;8.75;;;;;;;0.04;59.05;102698.95;1720212;81;21487;-60
2021/11/10 05:17:49;;;;;;;16.85;8.60;;;;;;;0.06;59.01;102707.57;1748572;80;21030;-60
2021/11/10 05:20:17;;;;;;;16.60;8.55;;;;;;;0.07;58.85;102714.45;1747186;80;21002;-61
2021/11/10 05:22:45;;;;;;;15.23;7.37;;;;;;;0.04;58.63;102714.03;1746229;80;21478;-62
2021/11/10 05:25:12;;;;;;;15.32;8.10;;;;;;;-0.03;58.72;102707.98;1747500;80;23611;-61
2021/11/10 05:27:39;;;;;;;11.93;7.40;;;;;;;-0.06;58.84;102713.16;1748562;80;22486;-60
2021/11/10 05:30:07;;;;;;;13.18;7.72;;;;;;;-0.06;58.99;102717.03;1718790;81;21124;-62
2021/11/10 05:32:35;;;;;;;15.32;8.05;;;;;;;-0.02;59.09;102729.55;1746394;80;21077;-58
2021/11/10 05:35:02;;;;;;;12.98;7.70;;;;;;;0.01;59.04;102740.35;1744322;80;21069;-60
2021/11/10 05:37:29;;;;;;;17.27;7.47;;;;;;;0.03;58.91;102743.80;1746835;80;21135;-60
2021/11/10 05:39:56;;;;;;;12.93;7.72;;;;;;;0.00;58.90;102752.45;1717428;80;21041;-59
2021/11/10 05:42:24;;;;;;;17.17;7.85;;;;;;;-0.07;59.08;102759.73;1742683;80;21112;-61
2021/11/10 05:44:52;;;;;;;12.88;7.12;;;;;;;-0.09;58.92;102762.31;1742440;80;21080;-60
2021/11/10 05:47:18;;;;;;;15.70;8.20;;;;;;;-0.15;58.87;102764.91;1748009;81;21010;-60
2021/11/10 05:49:45;;;;;;;15.35;7.28;;;;;;;-0.19;58.80;102760.56;1716436;80;21274;-60
2021/11/10 05:52:11;;;;;;;14.58;7.78;;;;;;;-0.21;58.87;102754.53;1733913;80;21145;-61
2021/11/10 05:54:39;;;;;;;15.85;7.97;;;;;;;-0.23;59.10;102757.11;1734031;80;21061;-61
2021/11/10 05:57:07;;;;;;;16.48;6.40;;;;;;;-0.24;59.51;102759.69;1739690;80;21046;-61
2021/11/10 05:59:34;;;;;;;14.80;7.50;;;;;;;-0.21;59.59;102768.77;1737287;80;21573;-63
2021/11/10 06:02:01;;;;;;;12.00;6.20;;;;;;;-0.17;59.32;102770.48;1741555;80;21131;-61
2021/11/10 06:04:27;;;;;;;13.58;7.37;;;;;;;-0.18;59.37;102767.48;1741594;80;21894;-66
2021/11/10 06:06:53;;;;;;;13.50;6.83;;;;;;;-0.13;59.33;102756.71;1719966;81;21081;-63
2021/11/10 06:09:20;;;;;;;12.35;6.78;;;;;;;0.00;59.42;102765.38;1729883;81;21004;-63
2021/11/10 06:11:48;;;;;;;14.60;7.42;;;;;;;0.00;59.42;102765.38;1732680;81;21903;-62
2021/11/10 06:14:15;;;;;;;14.33;7.55;;;;;;;0.10;59.32;102780.08;1729297;80;21091;-63
2021/11/10 06:16:41;;;;;;;13.43;7.28;;;;;;;0.22;59.22;102778.34;1734209;81;21000;-65
2021/11/10 06:19:09;;;;;;;13.65;7.05;;;;;;;0.39;58.82;102775.36;1732873;82;21090;-65
2021/11/10 06:21:37;;;;;;;13.30;6.67;;;;;;;0.50;58.24;102771.47;1733619;81;21114;-64
2021/11/10 06:24:04;;;;;;;12.28;7.28;;;;;;;0.57;57.99;102782.27;1728274;81;21141;-64
2021/11/10 06:26:32;;;;;;;13.53;6.08;;;;;;;0.65;57.84;102775.36;1703312;81;21297;-63
2021/11/10 06:28:58;;;;;;;14.73;7.28;;;;;;;0.72;57.78;102770.62;1731192;81;21109;-64
2021/11/10 06:31:25;;;;;;;12.85;6.85;;;;;;;0.81;57.69;102768.45;1732148;81;21087;-63
2021/11/10 06:33:53;;;;;;;16.02;6.80;;;;;;;0.95;57.60;102763.68;1685955;82;21459;-62
2021/11/10 06:36:20;;;;;;;16.77;7.62;;;;;;;1.08;57.51;102764.94;1702080;82;21133;-64
2021/11/10 06:38:46;;;;;;;11.25;6.53;;;;;;;1.23;57.55;102769.68;1718548;81;21093;-64
2021/11/10 06:41:19;;;;;;;14.03;7.58;;;;;;;1.34;57.41;102761.41;1746586;80;21081;-62
2021/11/10 06:43:47;;;;;;;15.58;7.33;;;;;;;1.46;57.27;102760.50;1744004;80;21128;-64
2021/11/10 06:46:13;;;;;;;16.73;7.65;;;;;;;1.56;57.08;102755.70;1669407;82;21524;-62
2021/11/10 06:48:40;;;;;;;15.05;7.22;;;;;;;1.64;56.83;102761.72;1714722;81;21473;-63
2021/11/10 06:51:06;;;;;;;12.82;6.80;;;;;;;1.69;56.62;102753.92;1720146;81;21194;-62
2021/11/10 06:53:33;;;;;;;14.65;6.03;;;;;;;1.74;56.54;102757.35;1699265;81;21738;-63
2021/11/10 06:56:00;;;;;;;12.00;7.20;;;;;;;1.80;56.25;102753.44;1734911;80;21085;-64
2021/11/10 06:58:26;;;;;;;12.65;7.03;;;;;;;1.83;55.95;102756.02;1753418;78;22421;-61
2021/11/10 07:00:53;;;;;;;14.68;7.03;;;;;;;1.84;55.90;102760.77;1785623;78;21042;-60
2021/11/10 07:03:21;;;;;;;11.68;6.37;;;;;;;1.84;55.96;102765.96;1785829;78;21103;-61
2021/11/10 07:05:48;;;;;;;12.63;7.30;;;;;;;1.85;56.38;102763.36;1777918;78;21081;-61
2021/11/10 07:08:14;;;;;;;17.60;7.15;;;;;;;1.91;56.24;102753.36;1785091;78;21528;-57
2021/11/10 07:10:41;;;;;;;14.55;6.67;;;;;;;1.97;56.41;102759.83;1783090;78;21561;-62
2021/11/10 07:13:09;;;;;;;11.95;6.20;;;;;;;2.07;56.15;102760.64;1782756;78;21093;-60
2021/11/10 07:15:35;;;;;;;10.53;6.33;;;;;;;2.13;55.77;102758.43;1784644;78;23300;-61
2021/11/10 07:18:02;;;;;;;14.45;7.12;;;;;;;2.20;56.06;102751.02;1789227;78;21552;-63
2021/11/10 07:20:29;;;;;;;13.98;6.75;;;;;;;2.30;55.90;102755.27;1784059;78;21062;-62
2021/11/10 07:22:59;;;;;;;12.82;6.03;;;;;;;2.38;55.82;102755.22;1782045;78;21774;-59
2021/11/10 07:25:27;;;;;;;10.55;5.35;;;;;;;2.42;55.67;102746.52;1781224;78;21052;-62
2021/11/10 07:27:55;;;;;;;9.80;4.97;;;;;;;2.45;55.52;102751.69;1781465;78;21737;-58
2021/11/10 07:30:21;;;;;;;10.20;6.00;;;;;;;2.48;55.30;102754.72;1784618;78;21112;-57
2021/11/10 07:32:47;;;;;;;12.28;5.62;;;;;;;2.46;55.25;102747.38;1781037;78;21887;-61
2021/11/10 07:35:14;;;;;;;12.47;5.97;;;;;;;2.45;55.09;102743.89;1803034;77;21572;-60
2021/11/10 07:37:42;;;;;;;18.00;5.87;;;;;;;2.41;55.18;102735.27;1781376;78;22530;-60
2021/11/10 07:40:11;;;;;;;13.53;5.87;;;;;;;2.44;55.46;102733.51;1778831;77;21240;-59
2021/11/10 07:42:37;;;;;;;11.88;6.53;;;;;;;2.48;55.47;102739.97;1803060;77;21067;-59
2021/11/10 07:45:11;;;;;;;11.15;5.62;;;;;;;2.49;55.47;102746.91;1776676;77;21082;-63
2021/11/10 07:47:41;;;;;;;12.23;6.12;;;;;;;2.50;55.59;102741.27;1741766;80;21012;-61
2021/11/10 07:50:10;;;;;;;10.60;5.75;;;;;;;2.55;55.42;102739.48;1743400;79;21604;-60
2021/11/10 07:52:37;;;;;;;11.03;4.80;;;;;;;2.61;55.55;102735.55;1716850;81;21129;-61
2021/11/10 07:55:05;;;;;;;12.03;4.97;;;;;;;2.71;55.23;102737.18;1760903;79;21145;-61
2021/11/10 07:57:34;;;;;;;10.90;5.10;;;;;;;2.78;55.20;102733.64;1737132;79;21117;-60
2021/11/10 08:00:09;;;;;;;12.65;5.75;;;;;;;2.86;55.42;102724.89;1760591;80;21051;-62
2021/11/10 08:02:40;;;;;;;12.10;4.28;;;;;;;3.01;55.41;102729.08;1741269;80;21513;-62
2021/11/10 08:05:08;;;;;;;8.78;3.92;;;;;;;3.13;55.08;102732.41;1723397;80;21375;-62
2021/11/10 08:07:35;;;;;;;8.63;4.12;;;;;;;3.20;54.54;102733.66;1769438;78;21154;-62
2021/11/10 08:10:05;;;;;;;8.03;3.20;;;;;;;3.26;54.11;102736.16;1775559;78;21042;-62
2021/11/10 08:12:33;;;;;;;7.87;3.60;;;;;;;3.34;54.08;102744.74;1782086;77;21522;-61
2021/11/10 08:15:00;;;;;;;10.70;3.58;;;;;;;3.43;53.58;102747.67;1806700;77;21054;-59
2021/11/10 08:17:28;;;;;;;8.08;3.92;;;;;;;3.47;52.92;102744.17;1802106;77;21117;-59
2021/11/10 08:19:54;;;;;;;8.78;3.83;;;;;;;3.44;52.65;102751.55;1813283;77;21502;-60
2021/11/10 08:22:21;;;;;;;8.13;3.58;;;;;;;3.41;52.40;102758.09;1812302;78;21071;-60
2021/11/10 08:24:50;;;;;;;8.85;3.47;;;;;;;3.41;52.44;102759.84;1812943;78;21538;-59
2021/11/10 08:27:17;;;;;;;7.50;3.52;;;;;;;3.46;52.33;102754.14;1807903;77;21072;-64
2021/11/10 08:29:43;;;;;;;9.18;3.90;;;;;;;3.50;52.34;102754.09;1788035;77;21527;-62
2021/11/10 08:32:10;;;;;;;7.12;3.15;;;;;;;3.54;52.43;102747.95;1779675;78;21087;-64
2021/11/10 08:34:37;;;;;;;10.78;3.37;;;;;;;3.61;52.45;102743.98;1794670;77;21085;-62
2021/11/10 08:37:05;;;;;;;8.18;4.00;;;;;;;3.65;51.98;102743.08;1719229;80;21078;-62
2021/11/10 08:39:32;;;;;;;9.95;4.45;;;;;;;3.64;51.49;102738.74;1739596;80;21500;-61
2021/11/10 08:42:00;;;;;;;10.00;4.20;;;;;;;3.65;51.40;102753.05;1736297;80;21082;-64
2021/11/10 08:44:28;;;;;;;7.28;3.80;;;;;;;3.68;51.20;102754.31;1739555;79;21125;-63
2021/11/10 08:46:56;;;;;;;7.17;3.33;;;;;;;3.74;51.03;102755.96;1755685;79;21376;-62
2021/11/10 08:49:23;;;;;;;7.95;3.90;;;;;;;3.72;50.95;102753.38;1739497;79;21046;-62
2021/11/10 08:51:50;;;;;;;8.83;3.83;;;;;;;3.72;50.95;102755.98;1760672;79;21118;-62
2021/11/10 08:54:16;;;;;;;9.53;3.67;;;;;;;3.74;50.97;102746.00;1762844;78;21734;-61
2021/11/10 08:56:42;;;;;;;10.25;3.85;;;;;;;3.78;51.08;102743.75;1762992;79;21047;-61
2021/11/10 08:59:09;;;;;;;8.20;3.70;;;;;;;3.85;51.20;102750.59;1713693;80;22264;-61
2021/11/10 09:01:37;;;;;;;8.33;3.65;;;;;;;3.94;50.44;102748.33;1738696;80;21062;-62
2021/11/10 09:04:05;;;;;;;9.70;4.12;;;;;;;3.97;50.03;102740.02;1717797;80;21091;-63
2021/11/10 09:06:31;;;;;;;6.83;3.05;;;;;;;4.03;50.08;102742.97;1742581;80;21930;-62
2021/11/10 09:08:58;;;;;;;8.20;3.55;;;;;;;4.06;49.48;102737.27;1718483;81;21008;-63
2021/11/10 09:11:25;;;;;;;9.55;3.17;;;;;;;4.11;49.54;102729.38;1738448;80;21031;-63
2021/11/10 09:13:51;;;;;;;6.62;3.12;;;;;;;4.19;48.94;102737.09;1761139;79;21059;-62
2021/11/10 09:16:18;;;;;;;10.60;3.67;;;;;;;4.26;49.12;102721.77;1760828;79;21717;-62
2021/11/10 09:18:44;;;;;;;7.83;3.80;;;;;;;4.36;49.14;102712.06;1742506;79;21186;-61
2021/11/10 09:21:11;;;;;;;7.25;3.02;;;;;;;4.43;48.24;102716.28;1738839;80;21094;-61
2021/11/10 09:23:38;;;;;;;8.78;3.60;;;;;;;4.45;47.70;102717.99;1742420;80;21056;-61
2021/11/10 09:26:05;;;;;;;7.00;3.37;;;;;;;4.51;47.56;102720.08;1720087;80;21190;-62
2021/11/10 09:28:32;;;;;;;7.92;3.40;;;;;;;4.53;48.25;102720.45;1762419;78;21121;-61
2021/11/10 09:30:58;;;;;;;9.15;3.45;;;;;;;4.56;47.86;102717.80;1744433;80;21341;-61
2021/11/10 09:33:25;;;;;;;7.55;2.90;;;;;;;4.62;47.87;102717.70;1730178;80;21086;-60
2021/11/10 09:35:52;;;;;;;8.58;3.62;;;;;;;4.70;47.38;102722.75;1766291;79;21169;-60
2021/11/10 09:38:19;;;;;;;6.90;2.92;;;;;;;4.74;47.04;102717.92;1719460;80;21085;-62
2021/11/10 09:40:46;;;;;;;5.72;2.27;;;;;;;4.78;45.68;102709.13;1742479;80;21083;-61
2021/11/10 09:43:15;;;;;;;6.55;3.12;;;;;;;4.78;45.64;102708.28;1760919;79;21124;-61
2021/11/10 09:45:43;;;;;;;6.37;2.70;;;;;;;4.79;45.55;102699.12;1748356;80;21099;-59
2021/11/10 09:48:09;;;;;;;9.20;3.10;;;;;;;4.85;45.92;102699.45;1748127;80;21047;-67
2021/11/10 09:50:42;;;;;;;6.33;3.10;;;;;;;4.93;46.13;102696.25;1743724;80;21027;-64
2021/11/10 09:53:06;;;;;;;8.23;3.92;;;;;;;5.05;45.68;102696.91;1797336;77;21030;-65
2021/11/10 09:55:33;;;;;;;7.58;3.62;;;;;;;5.16;45.70;102704.05;1802816;77;21038;-73
2021/11/10 09:58:01;;;;;;;8.30;4.15;;;;;;;5.23;46.74;102708.28;1779949;78;21062;-71
2021/11/10 10:00:32;;;;;;;10.65;3.60;;;;;;;5.27;47.10;102722.13;1793541;77;21055;-66
2021/11/10 10:03:01;;;;;;;7.58;2.60;;;;;;;5.31;46.89;102718.55;1792919;77;21629;-66
2021/11/10 10:05:28;;;;;;;8.20;2.37;;;;;;;5.34;44.27;102710.66;1799535;77;21079;-67
2021/11/10 10:07:56;;;;;;;4.72;2.00;;;;;;;5.39;43.60;102696.61;1795756;78;21762;-66
2021/11/10 10:10:24;;;;;;;5.50;2.35;;;;;;;5.50;43.29;102711.22;1800639;77;21050;-67
2021/11/10 10:12:52;;;;;;;6.00;2.72;;;;;;;5.62;42.46;102712.70;1781454;77;21542;-65
2021/11/10 10:15:19;;;;;;;6.08;3.00;;;;;;;5.67;42.44;102705.63;1791108;78;21058;-66
2021/11/10 10:17:48;;;;;;;6.78;2.37;;;;;;;5.73;42.55;102709.38;1794531;77;21144;-66
2021/11/10 10:20:33;;;;;;;6.78;2.85;;;;;;;5.80;41.66;102706.19;1774425;77;21059;-66
2021/11/10 10:23:03;;;;;;;5.22;2.12;;;;;;;5.87;41.37;102709.09;1783374;77;21078;-65
2021/11/10 10:25:46;;;;;;;6.75;2.27;;;;;;;6.01;40.88;102705.72;1797949;77;21149;-68
2021/11/10 10:28:18;;;;;;;5.95;2.02;;;;;;;6.16;40.28;102699.73;1795673;77;21089;-65
2021/11/10 10:30:49;;;;;;;4.83;2.10;;;;;;;6.33;39.92;102705.39;1777732;77;21000;-67
2021/11/10 10:33:19;;;;;;;5.75;2.52;;;;;;;6.44;39.34;102697.26;1790719;77;22397;-65
2021/11/10 10:35:58;;;;;;;6.12;2.20;;;;;;;6.49;38.99;102690.18;1798575;77;21684;-66
2021/11/10 10:38:29;;;;;;;5.12;1.98;;;;;;;6.54;38.99;102690.04;1773786;78;21059;-66
2021/11/10 10:41:00;;;;;;;6.33;2.83;;;;;;;6.57;39.08;102689.50;1794886;77;21533;-67
2021/11/10 10:43:28;;;;;;;5.12;2.20;;;;;;;6.61;38.99;102692.47;1775575;78;21110;-69
2021/11/10 10:45:57;;;;;;;7.17;2.37;;;;;;;6.63;39.36;102691.13;1795107;79;21079;-73
2021/11/10 10:48:26;;;;;;;7.28;2.20;;;;;;;6.63;39.09;102694.59;1799109;77;20906;-73
2021/11/10 10:50:55;;;;;;;6.67;2.60;;;;;;;6.65;39.61;102695.40;1745795;80;21113;-73
2021/11/10 10:53:40;;;;;;;6.62;2.58;;;;;;;6.73;39.38;102682.12;1766644;79;20983;-72
2021/11/10 10:56:28;;;;;;;8.28;2.55;;;;;;;6.79;39.70;102681.09;1759089;79;21577;-66
2021/11/10 10:59:12;;;;;;;7.53;2.40;;;;;;;6.92;39.20;102675.92;1737525;80;21086;-68
2021/11/10 11:01:43;;;;;;;5.65;2.12;;;;;;;7.02;37.82;102668.67;1742712;80;21543;-67
2021/11/10 11:04:21;;;;;;;5.47;2.10;;;;;;;7.08;37.41;102665.89;1717623;80;21078;-67
2021/11/10 11:07:03;;;;;;;4.72;1.77;;;;;;;7.13;35.52;102667.92;1740685;80;21118;-66
2021/11/10 11:09:34;;;;;;;5.60;2.55;;;;;;;7.14;35.24;102672.70;1781199;77;21125;-66
2021/11/10 11:12:29;;;;;;;5.55;2.35;;;;;;;7.08;36.25;102675.05;1793666;77;21061;-68
2021/11/10 11:15:24;;;;;;;6.67;2.50;;;;;;;7.07;36.30;102670.70;1806766;77;21199;-68
2021/11/10 11:17:49;;;;;;;6.65;3.35;;;;;;;7.08;37.21;102668.51;1798952;77;21078;-65
2021/11/10 11:20:23;;;;;;;5.20;2.20;;;;;;;7.12;37.44;102666.20;1778257;77;21078;-69
2021/11/10 11:22:55;;;;;;;6.75;2.08;;;;;;;7.22;38.42;102662.41;1737808;80;21496;-65
2021/11/10 11:25:30;;;;;;;6.53;2.40;;;;;;;7.38;37.20;102664.13;1711255;80;21557;-67
2021/11/10 11:28:06;;;;;;;11.38;5.40;;;;;;;7.54;36.39;102661.04;1800779;77;21078;-65
2021/11/10 11:30:42;;;;;;;7.12;2.40;;;;;;;7.60;37.68;102654.31;1777387;77;21054;-63
2021/11/10 11:33:15;;;;;;;7.12;2.92;;;;;;;7.66;38.42;102655.87;1802073;77;21403;-62